createdAt,value
2023-03-28T00:04:42.209Z,100579.78
2023-03-28T00:09:44.988Z,100577.94
2023-03-28T00:14:47.996Z,100575.94
2023-03-28T00:19:53.767Z,100575.81
2023-03-28T00:24:59.065Z,100577.13
2023-03-28T00:30:02.834Z,100570.63
2023-03-28T00:35:06.776Z,100582.97
2023-03-28T00:40:10.247Z,100580.50
2023-03-28T00:45:13.182Z,100579.09
2023-03-28T00:50:27.780Z,100563.88
2023-03-28T00:55:48.066Z,100572.63
2023-03-28T01:00:55.105Z,100581.63
2023-03-28T01:05:58.470Z,100581.22
2023-03-28T01:11:12.575Z,100583.22
2023-03-28T01:16:16.359Z,100581.88
2023-03-28T01:21:54.173Z,100580.69
2023-03-28T01:27:27.752Z,100574.13
2023-03-28T01:32:50.394Z,100574.28
2023-03-28T01:38:03.341Z,100573.44
2023-03-28T01:43:37.424Z,100571.78
2023-03-28T01:49:16.305Z,100571.81
2023-03-28T01:54:26.606Z,100564.84
2023-03-28T01:59:48.603Z,100560.72
2023-03-28T02:05:03.286Z,100550.72
2023-03-28T02:10:09.192Z,100519.38
2023-03-28T02:15:31.968Z,100555.84
2023-03-28T02:21:00.264Z,100544.50
2023-03-28T02:26:29.117Z,100556.25
2023-03-28T02:31:50.620Z,100558.72
2023-03-28T02:36:57.846Z,100556.94
2023-03-28T02:42:15.225Z,100554.84
2023-03-28T02:47:39.207Z,100554.25
2023-03-28T02:52:52.443Z,100554.44
2023-03-28T02:58:00.341Z,100547.47
2023-03-28T03:03:08.225Z,100544.44
2023-03-28T03:08:11.992Z,100545.38
2023-03-28T03:13:17.018Z,100552.88
2023-03-28T03:18:19.844Z,100557.09
2023-03-28T03:23:22.610Z,100553.59
2023-03-28T03:28:29.540Z,100559.03
2023-03-28T03:33:32.826Z,100567.03
2023-03-28T03:38:40.083Z,100564.13
2023-03-28T03:43:45.217Z,100561.84
2023-03-28T03:48:50.460Z,100549.09
2023-03-28T03:53:54.033Z,100554.75
2023-03-28T03:59:05.026Z,100559.16
2023-03-28T04:04:11.922Z,100561.69
2023-03-28T04:09:34.594Z,100552.47
2023-03-28T04:14:39.517Z,100555.84
2023-03-28T04:20:13.352Z,100562.34
2023-03-28T04:25:35.752Z,100552.06
2023-03-28T04:30:42.011Z,100545.59
2023-03-28T04:36:06.184Z,100533.94
2023-03-28T04:41:09.621Z,100529.72
2023-03-28T04:46:38.231Z,100525.00
2023-03-28T04:51:50.978Z,100533.63
2023-03-28T04:56:53.875Z,100529.84
2023-03-28T05:02:05.167Z,100540.69
2023-03-28T05:07:28.445Z,100548.56
2023-03-28T05:12:31.320Z,100541.44
2023-03-28T05:17:38.690Z,100539.06
2023-03-28T05:23:06.442Z,100509.09
2023-03-28T05:28:12.173Z,100497.09
2023-03-28T05:33:23.351Z,100491.72
2023-03-28T05:38:27.046Z,100499.16
2023-03-28T05:43:33.627Z,100505.09
2023-03-28T05:48:37.216Z,100494.56
2023-03-28T05:53:39.885Z,100507.47
2023-03-28T05:58:45.618Z,100507.88
2023-03-28T06:03:48.380Z,100501.09
2023-03-28T06:08:51.364Z,100497.06
2023-03-28T06:13:54.630Z,100492.72
2023-03-28T06:19:06.870Z,100498.66
2023-03-28T06:24:18.095Z,100482.78
2023-03-28T06:29:22.176Z,100481.84
2023-03-28T06:34:33.890Z,100476.72
2023-03-28T06:39:37.836Z,100478.59
2023-03-28T06:44:41.080Z,100467.88
2023-03-28T06:49:54.056Z,100451.88
2023-03-28T06:54:59.528Z,100462.03
2023-03-28T07:00:02.504Z,100437.38
2023-03-28T07:05:25.215Z,100457.56
2023-03-28T07:10:28.206Z,100439.78
2023-03-28T07:15:31.205Z,100442.41
2023-03-28T07:20:34.576Z,100413.31
2023-03-28T07:25:37.559Z,100422.34
2023-03-28T07:30:40.634Z,100397.34
2023-03-28T07:35:43.452Z,100378.78
2023-03-28T07:40:48.957Z,100398.28
2023-03-28T07:45:52.265Z,100408.84
2023-03-28T07:50:55.757Z,100411.00
2023-03-28T07:55:59.683Z,100381.03
2023-03-28T08:01:13.051Z,100374.06
2023-03-28T08:06:30.923Z,100369.25
2023-03-28T08:11:36.261Z,100361.22
2023-03-28T08:16:39.362Z,100349.50
2023-03-28T08:21:42.202Z,100367.41
2023-03-28T08:26:47.432Z,100366.69
2023-03-28T08:31:52.027Z,100375.88
2023-03-28T08:36:55.005Z,100382.09
2023-03-28T08:42:27.613Z,100355.53
2023-03-28T08:47:33.862Z,100361.22
2023-03-28T08:52:36.920Z,100364.41
2023-03-28T08:57:42.790Z,100378.16
2023-03-28T09:02:45.407Z,100380.72
2023-03-28T09:08:08.344Z,100367.22
2023-03-28T09:13:14.921Z,100373.34
2023-03-28T09:18:57.871Z,100354.03
2023-03-28T09:24:21.881Z,100356.78
2023-03-28T09:29:40.534Z,100324.78
2023-03-28T09:34:46.649Z,100338.81
2023-03-28T09:39:53.896Z,100335.75
2023-03-28T09:45:35.454Z,100346.97
2023-03-28T09:50:59.056Z,100340.19
2023-03-28T09:56:06.473Z,100338.66
2023-03-28T10:01:44.450Z,100374.59
2023-03-28T10:07:11.556Z,100360.88
2023-03-28T10:12:44.022Z,100346.50
2023-03-28T10:17:46.914Z,100353.88
2023-03-28T10:22:55.104Z,100355.66
2023-03-28T10:28:00.998Z,100362.59
2023-03-28T10:33:07.152Z,100346.50
2023-03-28T10:38:48.109Z,100337.81
2023-03-28T10:44:19.516Z,100326.56
2023-03-28T10:49:51.143Z,100324.94
2023-03-28T10:55:18.667Z,100326.56
2023-03-28T11:00:42.430Z,100304.53
2023-03-28T11:06:01.725Z,100340.13
2023-03-28T11:11:30.375Z,100333.78
2023-03-28T11:16:54.786Z,100319.84
2023-03-28T11:22:33.368Z,100321.31
2023-03-28T11:27:42.959Z,100326.59
2023-03-28T11:33:14.403Z,100295.59
2023-03-28T11:38:22.636Z,100304.31
2023-03-28T11:43:35.652Z,100303.00
2023-03-28T11:49:18.528Z,100300.00
2023-03-28T11:54:36.991Z,100294.78
2023-03-28T11:59:43.217Z,100293.72
2023-03-28T12:05:10.710Z,100281.72
2023-03-28T12:10:38.548Z,100288.50
2023-03-28T12:16:12.345Z,100277.19
2023-03-28T12:21:41.948Z,100279.88
2023-03-28T12:27:08.037Z,100277.41
2023-03-28T12:32:27.747Z,100298.97
2023-03-28T12:38:23.064Z,100288.81
2023-03-28T12:43:56.097Z,100297.25
2023-03-28T12:49:11.657Z,100288.19
2023-03-28T12:54:17.517Z,100275.94
2023-03-28T12:59:48.429Z,100283.75
2023-03-28T13:05:19.051Z,100276.91
2023-03-28T13:11:08.611Z,100275.25
2023-03-28T13:16:17.480Z,100270.25
2023-03-28T13:21:43.617Z,100271.72
2023-03-28T13:26:57.912Z,100276.41
2023-03-28T13:32:04.462Z,100282.22
2023-03-28T13:37:42.189Z,100279.06
2023-03-28T13:42:58.308Z,100262.91
2023-03-28T13:48:12.654Z,100279.91
2023-03-28T13:53:16.123Z,100280.28
2023-03-28T13:58:19.346Z,100272.41
2023-03-28T14:03:22.280Z,100273.06
2023-03-28T14:08:26.143Z,100274.47
2023-03-28T14:13:32.294Z,100272.72
2023-03-28T14:18:46.460Z,100258.91
2023-03-28T14:23:57.475Z,100268.34
2023-03-28T14:29:15.378Z,100239.16
2023-03-28T14:34:21.749Z,100240.47
2023-03-28T14:39:25.271Z,100254.63
2023-03-28T14:44:29.236Z,100252.31
2023-03-28T14:49:33.083Z,100258.44
2023-03-28T14:54:39.767Z,100256.53
2023-03-28T14:59:45.339Z,100244.53
2023-03-28T15:04:48.610Z,100236.88
2023-03-28T15:10:13.059Z,100226.25
2023-03-28T15:15:25.586Z,100221.75
2023-03-28T15:20:32.438Z,100219.69
2023-03-28T15:25:36.189Z,100220.94
2023-03-28T15:30:44.024Z,100212.59
2023-03-28T15:35:47.279Z,100217.53
2023-03-28T15:40:51.740Z,100204.88
2023-03-28T15:46:02.365Z,100199.75
2023-03-28T15:51:07.224Z,100196.34
2023-03-28T15:56:24.421Z,100175.63
2023-03-28T16:01:32.450Z,100172.16
2023-03-28T16:06:44.167Z,100173.16
2023-03-28T16:11:48.132Z,100152.25
2023-03-28T16:17:29.243Z,100178.53
2023-03-28T16:22:45.569Z,100174.31
2023-03-28T16:27:48.563Z,100173.16
2023-03-28T16:32:51.608Z,100177.09
2023-03-28T16:37:55.535Z,100170.44
2023-03-28T16:42:58.911Z,100167.22
2023-03-28T16:48:01.832Z,100168.22
2023-03-28T16:53:06.849Z,100156.84
2023-03-28T16:58:09.585Z,100158.44
2023-03-28T17:03:18.181Z,100157.31
2023-03-28T17:08:22.619Z,100163.78
2023-03-28T17:13:25.471Z,100164.25
2023-03-28T17:18:28.440Z,100163.97
2023-03-28T17:23:32.046Z,100158.47
2023-03-28T17:28:39.263Z,100151.34
2023-03-28T17:33:42.237Z,100158.72
2023-03-28T17:38:45.216Z,100171.09
2023-03-28T17:43:47.925Z,100170.28
2023-03-28T17:48:51.101Z,100174.84
2023-03-28T17:53:54.540Z,100159.50
2023-03-28T17:58:59.899Z,100168.22
2023-03-28T18:04:02.900Z,100158.03
2023-03-28T18:09:31.773Z,100162.44
2023-03-28T18:14:34.658Z,100175.06
2023-03-28T18:19:37.548Z,100156.50
2023-03-28T18:24:40.369Z,100153.22
2023-03-28T18:29:43.120Z,100164.56
2023-03-28T18:34:45.808Z,100146.72
2023-03-28T18:39:49.026Z,100142.06
2023-03-28T18:44:51.695Z,100140.44
2023-03-28T18:49:54.794Z,100143.91
2023-03-28T18:54:57.641Z,100137.38
2023-03-28T19:00:00.680Z,100129.00
2023-03-28T19:05:03.493Z,100135.00
2023-03-28T19:10:07.718Z,100135.78
2023-03-28T19:15:11.288Z,100125.34
2023-03-28T19:20:14.047Z,100126.13
2023-03-28T19:25:16.900Z,100115.06
2023-03-28T19:30:19.848Z,100112.63
2023-03-28T19:35:23.111Z,100113.41
2023-03-28T19:40:26.994Z,100107.28
2023-03-28T19:45:30.205Z,100116.63
2023-03-28T19:50:33.947Z,100112.94
2023-03-28T19:55:36.814Z,100097.16
2023-03-28T20:00:39.563Z,100106.25
2023-03-28T20:05:47.388Z,100100.25
2023-03-28T20:10:51.688Z,100109.75
2023-03-28T20:15:55.828Z,100100.78
2023-03-28T20:21:01.081Z,100092.34
2023-03-28T20:26:15.805Z,100092.41
2023-03-28T20:31:19.383Z,100078.84
2023-03-28T20:36:22.872Z,100086.84
2023-03-28T20:41:27.343Z,100097.31
2023-03-28T20:46:32.991Z,100096.06
2023-03-28T20:51:39.298Z,100087.84
2023-03-28T20:56:43.075Z,100086.84
2023-03-28T21:01:46.373Z,100082.94
2023-03-28T21:06:50.374Z,100076.91
2023-03-28T21:11:53.234Z,100081.78
2023-03-28T21:16:58.297Z,100076.91
2023-03-28T21:22:01.701Z,100086.28
2023-03-28T21:27:04.843Z,100072.84
2023-03-28T21:32:07.829Z,100069.06
2023-03-28T21:37:11.404Z,100070.75
2023-03-28T21:42:14.085Z,100045.41
2023-03-28T21:47:16.850Z,100060.56
2023-03-28T21:52:20.001Z,100054.66
2023-03-28T21:57:22.910Z,100044.97
2023-03-28T22:02:25.923Z,100050.66
2023-03-28T22:07:28.610Z,100055.50
2023-03-28T22:12:32.841Z,100050.22
2023-03-28T22:17:38.809Z,100040.66
2023-03-28T22:22:48.846Z,100033.44
2023-03-28T22:27:53.224Z,100048.09
2023-03-28T22:32:56.032Z,100047.16
2023-03-28T22:37:59.262Z,100044.34
2023-03-28T22:43:03.509Z,100039.50
2023-03-28T22:48:14.711Z,100037.34
2023-03-28T22:53:18.252Z,100038.25
2023-03-28T22:58:22.900Z,100038.94
2023-03-28T23:03:25.712Z,100018.56
2023-03-28T23:08:28.726Z,100025.94
2023-03-28T23:13:31.577Z,100016.13
2023-03-28T23:18:34.519Z,100008.59
2023-03-28T23:23:37.195Z,100005.75
2023-03-28T23:28:40.082Z,99999.44
2023-03-28T23:33:44.961Z,99988.13
2023-03-28T23:38:48.473Z,99992.69
2023-03-28T23:43:51.362Z,99983.38
2023-03-28T23:48:54.074Z,99958.56
2023-03-28T23:53:56.835Z,99969.09
2023-03-28T23:58:59.524Z,99956.16
